sensor_id;sensor_type;location;lat;lon;timestamp;P1;durP1;ratioP1;P2;durP2;ratioP2
2035;SDS011;23642;42.658;23.350;2024-03-23T00:52:21;119.37;;;111.80;;
2035;SDS011;23642;42.658;23.350;2024-03-23T00:58:20;119.20;;;111.90;;
2035;SDS011;23642;42.658;23.350;2024-03-23T01:01:07;118.30;;;111.00;;
2035;SDS011;23642;42.658;23.350;2024-03-23T01:04:15;120.83;;;112.90;;
2035;SDS011;23642;42.658;23.350;2024-03-23T01:06:44;119.40;;;111.90;;
2035;SDS011;23642;42.658;23.350;2024-03-23T01:09:37;119.40;;;111.70;;
2035;SDS011;23642;42.658;23.350;2024-03-23T01:12:21;118.90;;;111.13;;
2035;SDS011;23642;42.658;23.350;2024-03-23T01:17:43;119.27;;;111.60;;
2035;SDS011;23642;42.658;23.350;2024-03-23T01:20:29;119.88;;;112.18;;
2035;SDS011;23642;42.658;23.350;2024-03-23T01:23:18;119.80;;;112.30;;
2035;SDS011;23642;42.658;23.350;2024-03-23T01:26:06;115.47;;;108.17;;
2035;SDS011;23642;42.658;23.350;2024-03-23T01:28:41;122.33;;;114.90;;
2035;SDS011;23642;42.658;23.350;2024-03-23T01:31:46;120.57;;;112.40;;
2035;SDS011;23642;42.658;23.350;2024-03-23T01:34:33;123.20;;;115.03;;
2035;SDS011;23642;42.658;23.350;2024-03-23T01:37:24;117.65;;;110.18;;
2035;SDS011;23642;42.658;23.350;2024-03-23T01:40:19;121.50;;;113.57;;
2035;SDS011;23642;42.658;23.350;2024-03-23T01:46:23;122.55;;;114.60;;
2035;SDS011;23642;42.658;23.350;2024-03-23T01:57:57;118.90;;;111.70;;
2035;SDS011;23642;42.658;23.350;2024-03-23T02:03:56;117.70;;;110.43;;
2035;SDS011;23642;42.658;23.350;2024-03-23T02:07:02;121.77;;;114.10;;
2035;SDS011;23642;42.658;23.350;2024-03-23T02:09:17;121.63;;;114.10;;
2035;SDS011;23642;42.658;23.350;2024-03-23T02:12:05;118.47;;;111.13;;
2035;SDS011;23642;42.658;23.350;2024-03-23T02:15:04;119.40;;;110.97;;
2035;SDS011;23642;42.658;23.350;2024-03-23T02:17:42;121.10;;;113.80;;
2035;SDS011;23642;42.658;23.350;2024-03-23T02:20:40;117.22;;;110.22;;
2035;SDS011;23642;42.658;23.350;2024-03-23T02:23:23;118.90;;;111.53;;
2035;SDS011;23642;42.658;23.350;2024-03-23T02:26:09;118.37;;;110.97;;
2035;SDS011;23642;42.658;23.350;2024-03-23T02:28:46;121.10;;;113.30;;
2035;SDS011;23642;42.658;23.350;2024-03-23T02:34:38;122.68;;;114.55;;
2035;SDS011;23642;42.658;23.350;2024-03-23T02:38:03;119.27;;;111.87;;
2035;SDS011;23642;42.658;23.350;2024-03-23T02:41:00;117.47;;;110.13;;
2035;SDS011;23642;42.658;23.350;2024-03-23T02:43:48;119.00;;;111.90;;
2035;SDS011;23642;42.658;23.350;2024-03-23T02:46:52;120.47;;;112.50;;
2035;SDS011;23642;42.658;23.350;2024-03-23T02:49:22;120.00;;;112.67;;
2035;SDS011;23642;42.658;23.350;2024-03-23T02:52:11;117.85;;;110.65;;
2035;SDS011;23642;42.658;23.350;2024-03-23T02:55:01;117.00;;;109.80;;
2035;SDS011;23642;42.658;23.350;2024-03-23T03:00:42;118.55;;;111.15;;
2035;SDS011;23642;42.658;23.350;2024-03-23T03:03:31;119.82;;;112.43;;
2035;SDS011;23642;42.658;23.350;2024-03-23T03:06:06;120.90;;;113.55;;
2035;SDS011;23642;42.658;23.350;2024-03-23T03:08:54;116.80;;;109.10;;
2035;SDS011;23642;42.658;23.350;2024-03-23T03:11:56;121.17;;;113.77;;
2035;SDS011;23642;42.658;23.350;2024-03-23T03:17:35;119.67;;;112.03;;
2035;SDS011;23642;42.658;23.350;2024-03-23T03:20:22;118.13;;;111.13;;
2035;SDS011;23642;42.658;23.350;2024-03-23T03:23:32;116.53;;;109.60;;
2035;SDS011;23642;42.658;23.350;2024-03-23T03:26:14;121.13;;;113.63;;
2035;SDS011;23642;42.658;23.350;2024-03-23T03:28:57;120.03;;;112.40;;
2035;SDS011;23642;42.658;23.350;2024-03-23T03:37:59;119.28;;;112.00;;
2035;SDS011;23642;42.658;23.350;2024-03-23T03:40:52;119.05;;;111.93;;
2035;SDS011;23642;42.658;23.350;2024-03-23T03:43:45;119.25;;;111.95;;
2035;SDS011;23642;42.658;23.350;2024-03-23T03:47:43;120.00;;;112.32;;
2035;SDS011;23642;42.658;23.350;2024-03-23T03:49:57;120.03;;;112.45;;
2035;SDS011;23642;42.658;23.350;2024-03-23T03:52:42;118.20;;;110.55;;
2035;SDS011;23642;42.658;23.350;2024-03-23T03:58:08;118.32;;;111.20;;
2035;SDS011;23642;42.658;23.350;2024-03-23T04:01:08;119.35;;;112.18;;
2035;SDS011;23642;42.658;23.350;2024-03-23T04:07:13;117.57;;;110.38;;
2035;SDS011;23642;42.658;23.350;2024-03-23T04:10:21;117.35;;;110.15;;
2035;SDS011;23642;42.658;23.350;2024-03-23T04:13:12;121.20;;;113.72;;
2035;SDS011;23642;42.658;23.350;2024-03-23T04:16:01;118.47;;;111.10;;
2035;SDS011;23642;42.658;23.350;2024-03-23T04:18:36;119.43;;;111.97;;
2035;SDS011;23642;42.658;23.350;2024-03-23T04:21:27;118.05;;;110.78;;
2035;SDS011;23642;42.658;23.350;2024-03-23T04:24:28;121.97;;;114.15;;
2035;SDS011;23642;42.658;23.350;2024-03-23T04:27:24;123.85;;;115.55;;
2035;SDS011;23642;42.658;23.350;2024-03-23T04:30:17;125.03;;;116.72;;
2035;SDS011;23642;42.658;23.350;2024-03-23T04:32:54;125.53;;;116.82;;
2035;SDS011;23642;42.658;23.350;2024-03-23T04:35:32;124.72;;;116.07;;
2035;SDS011;23642;42.658;23.350;2024-03-23T04:37:59;127.93;;;117.50;;
2035;SDS011;23642;42.658;23.350;2024-03-23T04:43:27;125.50;;;117.03;;
2035;SDS011;23642;42.658;23.350;2024-03-23T04:46:36;124.50;;;116.30;;
2035;SDS011;23642;42.658;23.350;2024-03-23T04:49:20;121.13;;;113.28;;
2035;SDS011;23642;42.658;23.350;2024-03-23T04:51:57;124.63;;;115.97;;
2035;SDS011;23642;42.658;23.350;2024-03-23T04:54:37;125.72;;;117.22;;
2035;SDS011;23642;42.658;23.350;2024-03-23T05:00:53;125.47;;;116.20;;
2035;SDS011;23642;42.658;23.350;2024-03-23T05:03:44;127.65;;;118.82;;
2035;SDS011;23642;42.658;23.350;2024-03-23T05:06:30;128.10;;;119.30;;
2035;SDS011;23642;42.658;23.350;2024-03-23T05:09:14;127.43;;;118.20;;
2035;SDS011;23642;42.658;23.350;2024-03-23T05:11:58;130.77;;;120.97;;
2035;SDS011;23642;42.658;23.350;2024-03-23T05:14:26;130.90;;;121.53;;
2035;SDS011;23642;42.658;23.350;2024-03-23T05:17:16;130.30;;;119.73;;
2035;SDS011;23642;42.658;23.350;2024-03-23T05:19:45;129.37;;;119.73;;
2035;SDS011;23642;42.658;23.350;2024-03-23T05:22:23;132.60;;;123.00;;
2035;SDS011;23642;42.658;23.350;2024-03-23T05:24:57;132.43;;;122.50;;
2035;SDS011;23642;42.658;23.350;2024-03-23T05:27:31;130.33;;;121.10;;
2035;SDS011;23642;42.658;23.350;2024-03-23T05:30:16;129.67;;;120.33;;
2035;SDS011;23642;42.658;23.350;2024-03-23T05:32:55;128.13;;;119.07;;
2035;SDS011;23642;42.658;23.350;2024-03-23T05:35:37;131.73;;;122.40;;
2035;SDS011;23642;42.658;23.350;2024-03-23T05:38:41;130.43;;;120.07;;
2035;SDS011;23642;42.658;23.350;2024-03-23T05:41:40;126.67;;;118.10;;
2035;SDS011;23642;42.658;23.350;2024-03-23T05:44:32;127.37;;;118.70;;
2035;SDS011;23642;42.658;23.350;2024-03-23T05:47:18;128.57;;;119.37;;
2035;SDS011;23642;42.658;23.350;2024-03-23T05:52:54;126.80;;;118.30;;
2035;SDS011;23642;42.658;23.350;2024-03-23T05:55:39;124.40;;;116.07;;
2035;SDS011;23642;42.658;23.350;2024-03-23T05:58:14;127.30;;;119.03;;
2035;SDS011;23642;42.658;23.350;2024-03-23T06:00:58;128.23;;;119.87;;
2035;SDS011;23642;42.658;23.350;2024-03-23T06:03:46;125.30;;;117.30;;
2035;SDS011;23642;42.658;23.350;2024-03-23T06:09:26;127.00;;;118.70;;
2035;SDS011;23642;42.658;23.350;2024-03-23T06:11:58;131.10;;;122.10;;
2035;SDS011;23642;42.658;23.350;2024-03-23T06:14:30;128.17;;;119.67;;
2035;SDS011;23642;42.658;23.350;2024-03-23T06:17:06;128.73;;;120.00;;
2035;SDS011;23642;42.658;23.350;2024-03-23T06:19:44;130.80;;;122.10;;
2035;SDS011;23642;42.658;23.350;2024-03-23T06:22:29;134.00;;;123.57;;
2035;SDS011;23642;42.658;23.350;2024-03-23T06:25:15;131.70;;;122.80;;
2035;SDS011;23642;42.658;23.350;2024-03-23T06:27:54;131.67;;;121.80;;
2035;SDS011;23642;42.658;23.350;2024-03-23T06:30:51;134.03;;;124.63;;
2035;SDS011;23642;42.658;23.350;2024-03-23T06:33:31;134.03;;;123.40;;
2035;SDS011;23642;42.658;23.350;2024-03-23T06:36:09;131.30;;;122.10;;
2035;SDS011;23642;42.658;23.350;2024-03-23T06:38:58;130.77;;;121.87;;
2035;SDS011;23642;42.658;23.350;2024-03-23T06:45:20;128.63;;;119.60;;
2035;SDS011;23642;42.658;23.350;2024-03-23T06:48:09;132.97;;;123.87;;
2035;SDS011;23642;42.658;23.350;2024-03-23T06:50:47;132.07;;;123.30;;
2035;SDS011;23642;42.658;23.350;2024-03-23T06:53:22;129.37;;;120.03;;
2035;SDS011;23642;42.658;23.350;2024-03-23T06:55:53;128.80;;;119.60;;
2035;SDS011;23642;42.658;23.350;2024-03-23T06:58:33;134.00;;;125.10;;
2035;SDS011;23642;42.658;23.350;2024-03-23T07:01:11;132.20;;;123.70;;
2035;SDS011;23642;42.658;23.350;2024-03-23T07:04:21;131.97;;;122.10;;
2035;SDS011;23642;42.658;23.350;2024-03-23T07:07:08;129.77;;;121.33;;
2035;SDS011;23642;42.658;23.350;2024-03-23T07:09:46;130.10;;;121.20;;
2035;SDS011;23642;42.658;23.350;2024-03-23T07:12:44;126.40;;;118.43;;
2035;SDS011;23642;42.658;23.350;2024-03-23T07:15:25;130.57;;;121.93;;
2035;SDS011;23642;42.658;23.350;2024-03-23T07:18:18;127.27;;;119.17;;
2035;SDS011;23642;42.658;23.350;2024-03-23T07:21:07;125.73;;;117.67;;
2035;SDS011;23642;42.658;23.350;2024-03-23T07:23:52;128.00;;;119.60;;
2035;SDS011;23642;42.658;23.350;2024-03-23T07:26:26;126.57;;;118.30;;
2035;SDS011;23642;42.658;23.350;2024-03-23T07:29:29;125.90;;;117.63;;
2035;SDS011;23642;42.658;23.350;2024-03-23T07:33:31;130.13;;;121.70;;
2035;SDS011;23642;42.658;23.350;2024-03-23T07:35:55;128.80;;;120.50;;
2035;SDS011;23642;42.658;23.350;2024-03-23T07:38:44;127.27;;;119.37;;
2035;SDS011;23642;42.658;23.350;2024-03-23T07:44:46;126.33;;;118.33;;
2035;SDS011;23642;42.658;23.350;2024-03-23T07:48:22;128.67;;;120.60;;
2035;SDS011;23642;42.658;23.350;2024-03-23T07:51:01;132.23;;;123.60;;
2035;SDS011;23642;42.658;23.350;2024-03-23T07:53:49;131.10;;;122.73;;
2035;SDS011;23642;42.658;23.350;2024-03-23T07:56:39;129.67;;;120.97;;
2035;SDS011;23642;42.658;23.350;2024-03-23T07:59:36;127.97;;;119.53;;
2035;SDS011;23642;42.658;23.350;2024-03-23T08:05:34;130.30;;;121.77;;
2035;SDS011;23642;42.658;23.350;2024-03-23T08:11:41;126.30;;;118.20;;
2035;SDS011;23642;42.658;23.350;2024-03-23T08:14:32;128.37;;;119.97;;
2035;SDS011;23642;42.658;23.350;2024-03-23T08:17:13;130.13;;;121.90;;
2035;SDS011;23642;42.658;23.350;2024-03-23T08:20:01;130.60;;;122.10;;
2035;SDS011;23642;42.658;23.350;2024-03-23T08:22:57;131.60;;;123.17;;
2035;SDS011;23642;42.658;23.350;2024-03-23T08:32:23;130.00;;;121.40;;
2035;SDS011;23642;42.658;23.350;2024-03-23T08:35:17;132.93;;;123.20;;
2035;SDS011;23642;42.658;23.350;2024-03-23T08:38:04;130.07;;;121.60;;
2035;SDS011;23642;42.658;23.350;2024-03-23T08:40:47;127.10;;;118.63;;
2035;SDS011;23642;42.658;23.350;2024-03-23T08:43:44;127.37;;;119.07;;
2035;SDS011;23642;42.658;23.350;2024-03-23T08:46:33;128.10;;;119.90;;
2035;SDS011;23642;42.658;23.350;2024-03-23T08:49:40;125.30;;;117.10;;
2035;SDS011;23642;42.658;23.350;2024-03-23T08:52:46;126.60;;;118.60;;
2035;SDS011;23642;42.658;23.350;2024-03-23T08:56:01;130.97;;;122.57;;
2035;SDS011;23642;42.658;23.350;2024-03-23T08:58:54;129.17;;;120.10;;
2035;SDS011;23642;42.658;23.350;2024-03-23T09:02:38;127.87;;;119.60;;
2035;SDS011;23642;42.658;23.350;2024-03-23T09:05:43;130.07;;;121.27;;
2035;SDS011;23642;42.658;23.350;2024-03-23T09:08:37;128.77;;;120.23;;
2035;SDS011;23642;42.658;23.350;2024-03-23T09:11:34;127.03;;;117.87;;
2035;SDS011;23642;42.658;23.350;2024-03-23T09:20:58;126.83;;;118.40;;
2035;SDS011;23642;42.658;23.350;2024-03-23T09:23:51;126.03;;;117.93;;
2035;SDS011;23642;42.658;23.350;2024-03-23T09:26:36;128.47;;;119.80;;
2035;SDS011;23642;42.658;23.350;2024-03-23T09:29:25;128.77;;;120.53;;
2035;SDS011;23642;42.658;23.350;2024-03-23T09:31:59;127.00;;;118.97;;
2035;SDS011;23642;42.658;23.350;2024-03-23T09:41:23;124.83;;;117.07;;
2035;SDS011;23642;42.658;23.350;2024-03-23T09:44:11;124.90;;;116.30;;
2035;SDS011;23642;42.658;23.350;2024-03-23T09:47:17;127.73;;;119.00;;
2035;SDS011;23642;42.658;23.350;2024-03-23T09:50:32;126.30;;;118.33;;
2035;SDS011;23642;42.658;23.350;2024-03-23T09:53:31;124.47;;;116.87;;
2035;SDS011;23642;42.658;23.350;2024-03-23T09:59:08;124.20;;;116.33;;
2035;SDS011;23642;42.658;23.350;2024-03-23T10:11:36;125.47;;;117.77;;
2035;SDS011;23642;42.658;23.350;2024-03-23T10:14:42;123.63;;;115.87;;
2035;SDS011;23642;42.658;23.350;2024-03-23T10:17:51;121.50;;;114.10;;
2035;SDS011;23642;42.658;23.350;2024-03-23T10:20:43;125.20;;;117.30;;
2035;SDS011;23642;42.658;23.350;2024-03-23T10:23:47;126.83;;;118.53;;
2035;SDS011;23642;42.658;23.350;2024-03-23T10:26:17;127.67;;;119.37;;
2035;SDS011;23642;42.658;23.350;2024-03-23T10:32:38;125.13;;;117.23;;
2035;SDS011;23642;42.658;23.350;2024-03-23T10:35:45;129.40;;;120.67;;
2035;SDS011;23642;42.658;23.350;2024-03-23T10:38:38;126.30;;;117.93;;
2035;SDS011;23642;42.658;23.350;2024-03-23T10:41:15;132.17;;;122.73;;
2035;SDS011;23642;42.658;23.350;2024-03-23T10:44:12;124.23;;;116.90;;
2035;SDS011;23642;42.658;23.350;2024-03-23T10:50:12;126.87;;;116.83;;
2035;SDS011;23642;42.658;23.350;2024-03-23T10:53:06;121.73;;;114.07;;
2035;SDS011;23642;42.658;23.350;2024-03-23T10:55:55;126.73;;;118.63;;
2035;SDS011;23642;42.658;23.350;2024-03-23T10:58:48;122.53;;;114.60;;
2035;SDS011;23642;42.658;23.350;2024-03-23T11:05:00;123.13;;;115.23;;
2035;SDS011;23642;42.658;23.350;2024-03-23T11:08:10;121.83;;;114.17;;
2035;SDS011;23642;42.658;23.350;2024-03-23T11:17:41;124.27;;;115.87;;
2035;SDS011;23642;42.658;23.350;2024-03-23T11:27:20;123.97;;;116.30;;
2035;SDS011;23642;42.658;23.350;2024-03-23T11:30:43;120.73;;;113.13;;
2035;SDS011;23642;42.658;23.350;2024-03-23T11:33:28;120.80;;;113.47;;
2035;SDS011;23642;42.658;23.350;2024-03-23T11:36:18;122.40;;;115.10;;
2035;SDS011;23642;42.658;23.350;2024-03-23T11:39:13;122.63;;;114.93;;
2035;SDS011;23642;42.658;23.350;2024-03-23T11:41:55;121.50;;;113.73;;
2035;SDS011;23642;42.658;23.350;2024-03-23T11:48:05;119.50;;;112.30;;
2035;SDS011;23642;42.658;23.350;2024-03-23T11:50:57;124.03;;;116.53;;
2035;SDS011;23642;42.658;23.350;2024-03-23T11:56:56;124.93;;;116.67;;
2035;SDS011;23642;42.658;23.350;2024-03-23T11:59:31;124.90;;;116.97;;
2035;SDS011;23642;42.658;23.350;2024-03-23T12:02:12;121.47;;;114.00;;
2035;SDS011;23642;42.658;23.350;2024-03-23T12:04:42;121.77;;;114.57;;
2035;SDS011;23642;42.658;23.350;2024-03-23T12:07:15;119.87;;;112.63;;
2035;SDS011;23642;42.658;23.350;2024-03-23T12:16:18;123.00;;;115.70;;
2035;SDS011;23642;42.658;23.350;2024-03-23T12:18:55;121.20;;;113.63;;
2035;SDS011;23642;42.658;23.350;2024-03-23T12:21:41;119.67;;;112.27;;
2035;SDS011;23642;42.658;23.350;2024-03-23T12:24:44;120.03;;;112.93;;
2035;SDS011;23642;42.658;23.350;2024-03-23T12:27:36;124.80;;;117.07;;
2035;SDS011;23642;42.658;23.350;2024-03-23T12:33:35;122.23;;;113.90;;
2035;SDS011;23642;42.658;23.350;2024-03-23T12:36:19;124.53;;;116.30;;
2035;SDS011;23642;42.658;23.350;2024-03-23T12:38:47;117.70;;;109.63;;
2035;SDS011;23642;42.658;23.350;2024-03-23T12:41:35;118.80;;;111.77;;
2035;SDS011;23642;42.658;23.350;2024-03-23T12:44:17;118.57;;;111.10;;
2035;SDS011;23642;42.658;23.350;2024-03-23T12:50:46;120.27;;;113.17;;
2035;SDS011;23642;42.658;23.350;2024-03-23T12:53:26;120.17;;;112.87;;
2035;SDS011;23642;42.658;23.350;2024-03-23T12:56:44;117.33;;;110.23;;
2035;SDS011;23642;42.658;23.350;2024-03-23T12:59:41;117.40;;;110.40;;
2035;SDS011;23642;42.658;23.350;2024-03-23T13:02:42;117.07;;;109.73;;
2035;SDS011;23642;42.658;23.350;2024-03-23T13:05:30;115.47;;;108.60;;
2035;SDS011;23642;42.658;23.350;2024-03-23T13:11:24;117.90;;;110.90;;
2035;SDS011;23642;42.658;23.350;2024-03-23T13:14:22;115.70;;;108.97;;
2035;SDS011;23642;42.658;23.350;2024-03-23T13:17:24;114.80;;;107.97;;
2035;SDS011;23642;42.658;23.350;2024-03-23T13:20:46;114.57;;;107.87;;
2035;SDS011;23642;42.658;23.350;2024-03-23T13:23:15;114.87;;;108.07;;
2035;SDS011;23642;42.658;23.350;2024-03-23T13:29:28;109.93;;;103.73;;
2035;SDS011;23642;42.658;23.350;2024-03-23T13:32:13;112.10;;;105.70;;
2035;SDS011;23642;42.658;23.350;2024-03-23T13:35:23;113.30;;;106.87;;
2035;SDS011;23642;42.658;23.350;2024-03-23T13:37:52;112.83;;;106.43;;
2035;SDS011;23642;42.658;23.350;2024-03-23T13:40:39;114.57;;;108.03;;
2035;SDS011;23642;42.658;23.350;2024-03-23T13:43:29;112.23;;;105.63;;
2035;SDS011;23642;42.658;23.350;2024-03-23T13:46:06;111.43;;;105.10;;
2035;SDS011;23642;42.658;23.350;2024-03-23T13:48:45;112.30;;;105.90;;
2035;SDS011;23642;42.658;23.350;2024-03-23T13:51:12;113.43;;;106.53;;
2035;SDS011;23642;42.658;23.350;2024-03-23T13:54:05;112.17;;;105.87;;
2035;SDS011;23642;42.658;23.350;2024-03-23T13:56:58;111.97;;;105.40;;
2035;SDS011;23642;42.658;23.350;2024-03-23T14:00:12;113.20;;;106.60;;
2035;SDS011;23642;42.658;23.350;2024-03-23T14:02:52;114.03;;;107.23;;
2035;SDS011;23642;42.658;23.350;2024-03-23T14:05:46;111.77;;;105.37;;
2035;SDS011;23642;42.658;23.350;2024-03-23T14:08:42;110.30;;;104.00;;
2035;SDS011;23642;42.658;23.350;2024-03-23T14:11:38;113.23;;;106.60;;
2035;SDS011;23642;42.658;23.350;2024-03-23T14:14:25;113.83;;;107.23;;
2035;SDS011;23642;42.658;23.350;2024-03-23T14:17:11;112.60;;;106.30;;
2035;SDS011;23642;42.658;23.350;2024-03-23T14:26:25;114.43;;;108.03;;
2035;SDS011;23642;42.658;23.350;2024-03-23T14:29:17;114.70;;;108.30;;
2035;SDS011;23642;42.658;23.350;2024-03-23T14:32:05;114.93;;;108.50;;
2035;SDS011;23642;42.658;23.350;2024-03-23T14:34:55;111.57;;;105.03;;
2035;SDS011;23642;42.658;23.350;2024-03-23T14:37:37;113.20;;;106.80;;
2035;SDS011;23642;42.658;23.350;2024-03-23T14:43:43;116.40;;;109.43;;
2035;SDS011;23642;42.658;23.350;2024-03-23T14:46:20;113.93;;;107.30;;
2035;SDS011;23642;42.658;23.350;2024-03-23T14:48:49;114.67;;;108.17;;
2035;SDS011;23642;42.658;23.350;2024-03-23T14:51:28;113.70;;;107.17;;
2035;SDS011;23642;42.658;23.350;2024-03-23T14:54:28;115.30;;;108.50;;
2035;SDS011;23642;42.658;23.350;2024-03-23T14:56:56;114.70;;;107.93;;
2035;SDS011;23642;42.658;23.350;2024-03-23T15:09:16;112.20;;;105.70;;
2035;SDS011;23642;42.658;23.350;2024-03-23T15:12:33;115.80;;;108.70;;
2035;SDS011;23642;42.658;23.350;2024-03-23T15:15:16;112.90;;;105.83;;
2035;SDS011;23642;42.658;23.350;2024-03-23T15:17:59;110.47;;;104.07;;
2035;SDS011;23642;42.658;23.350;2024-03-23T15:20:34;112.93;;;106.40;;
2035;SDS011;23642;42.658;23.350;2024-03-23T15:26:28;112.17;;;105.67;;
2035;SDS011;23642;42.658;23.350;2024-03-23T15:29:14;113.20;;;106.50;;
2035;SDS011;23642;42.658;23.350;2024-03-23T15:31:57;114.93;;;108.07;;
2035;SDS011;23642;42.658;23.350;2024-03-23T15:34:30;117.20;;;110.30;;
2035;SDS011;23642;42.658;23.350;2024-03-23T15:37:17;117.47;;;110.63;;
2035;SDS011;23642;42.658;23.350;2024-03-23T15:40:09;114.93;;;108.23;;
2035;SDS011;23642;42.658;23.350;2024-03-23T15:42:55;116.13;;;109.43;;
2035;SDS011;23642;42.658;23.350;2024-03-23T15:45:53;114.20;;;107.70;;
2035;SDS011;23642;42.658;23.350;2024-03-23T15:48:38;116.53;;;109.53;;
2035;SDS011;23642;42.658;23.350;2024-03-23T15:51:52;116.87;;;109.67;;
2035;SDS011;23642;42.658;23.350;2024-03-23T15:54:55;114.90;;;107.77;;
2035;SDS011;23642;42.658;23.350;2024-03-23T15:57:43;114.37;;;107.80;;
2035;SDS011;23642;42.658;23.350;2024-03-23T16:00:57;113.33;;;106.67;;
2035;SDS011;23642;42.658;23.350;2024-03-23T16:03:49;114.13;;;107.33;;
2035;SDS011;23642;42.658;23.350;2024-03-23T16:06:32;115.63;;;108.73;;
2035;SDS011;23642;42.658;23.350;2024-03-23T16:09:16;114.40;;;107.80;;
2035;SDS011;23642;42.658;23.350;2024-03-23T16:11:44;113.30;;;106.70;;
2035;SDS011;23642;42.658;23.350;2024-03-23T16:14:32;115.13;;;108.20;;
2035;SDS011;23642;42.658;23.350;2024-03-23T16:17:31;112.33;;;105.57;;
2035;SDS011;23642;42.658;23.350;2024-03-23T16:20:09;114.90;;;107.60;;
2035;SDS011;23642;42.658;23.350;2024-03-23T16:22:49;114.23;;;107.00;;
2035;SDS011;23642;42.658;23.350;2024-03-23T16:25:29;116.73;;;108.40;;
2035;SDS011;23642;42.658;23.350;2024-03-23T16:28:18;112.87;;;106.37;;
2035;SDS011;23642;42.658;23.350;2024-03-23T16:31:09;115.20;;;108.33;;
2035;SDS011;23642;42.658;23.350;2024-03-23T16:34:09;115.40;;;108.30;;
2035;SDS011;23642;42.658;23.350;2024-03-23T16:36:44;114.37;;;107.43;;
2035;SDS011;23642;42.658;23.350;2024-03-23T16:39:49;114.93;;;108.33;;
2035;SDS011;23642;42.658;23.350;2024-03-23T16:42:34;114.20;;;107.67;;
2035;SDS011;23642;42.658;23.350;2024-03-23T16:45:36;114.70;;;108.00;;
2035;SDS011;23642;42.658;23.350;2024-03-23T16:52:18;115.07;;;108.23;;
2035;SDS011;23642;42.658;23.350;2024-03-23T16:54:59;116.87;;;109.37;;
2035;SDS011;23642;42.658;23.350;2024-03-23T16:57:35;114.87;;;108.00;;
2035;SDS011;23642;42.658;23.350;2024-03-23T17:00:31;113.97;;;107.30;;
2035;SDS011;23642;42.658;23.350;2024-03-23T17:03:27;113.23;;;106.50;;
2035;SDS011;23642;42.658;23.350;2024-03-23T17:05:58;114.50;;;107.73;;
2035;SDS011;23642;42.658;23.350;2024-03-23T17:15:19;115.67;;;107.70;;
2035;SDS011;23642;42.658;23.350;2024-03-23T17:18:18;113.47;;;106.73;;
2035;SDS011;23642;42.658;23.350;2024-03-23T17:24:07;118.13;;;109.60;;
2035;SDS011;23642;42.658;23.350;2024-03-23T17:26:36;115.00;;;107.97;;
2035;SDS011;23642;42.658;23.350;2024-03-23T17:29:07;116.93;;;109.83;;
2035;SDS011;23642;42.658;23.350;2024-03-23T17:31:58;118.60;;;110.40;;
2035;SDS011;23642;42.658;23.350;2024-03-23T17:34:41;116.47;;;109.40;;
2035;SDS011;23642;42.658;23.350;2024-03-23T17:37:14;116.57;;;109.67;;
2035;SDS011;23642;42.658;23.350;2024-03-23T17:40:18;118.90;;;112.03;;
2035;SDS011;23642;42.658;23.350;2024-03-23T17:43:07;115.50;;;108.83;;
2035;SDS011;23642;42.658;23.350;2024-03-23T17:45:42;115.93;;;109.00;;
2035;SDS011;23642;42.658;23.350;2024-03-23T17:48:16;114.33;;;107.30;;
2035;SDS011;23642;42.658;23.350;2024-03-23T17:53:50;114.90;;;108.10;;
2035;SDS011;23642;42.658;23.350;2024-03-23T17:56:31;115.00;;;108.20;;
2035;SDS011;23642;42.658;23.350;2024-03-23T17:59:17;115.27;;;107.80;;
2035;SDS011;23642;42.658;23.350;2024-03-23T18:02:03;113.13;;;106.07;;
2035;SDS011;23642;42.658;23.350;2024-03-23T18:04:41;114.53;;;107.37;;
2035;SDS011;23642;42.658;23.350;2024-03-23T18:07:24;118.73;;;111.40;;
2035;SDS011;23642;42.658;23.350;2024-03-23T18:10:23;114.63;;;107.20;;
2035;SDS011;23642;42.658;23.350;2024-03-23T18:13:02;113.70;;;106.90;;
2035;SDS011;23642;42.658;23.350;2024-03-23T18:16:07;115.13;;;108.23;;
2035;SDS011;23642;42.658;23.350;2024-03-23T18:18:54;116.57;;;109.47;;
2035;SDS011;23642;42.658;23.350;2024-03-23T18:24:52;113.73;;;106.73;;
2035;SDS011;23642;42.658;23.350;2024-03-23T18:27:41;114.90;;;107.87;;
2035;SDS011;23642;42.658;23.350;2024-03-23T18:30:32;116.30;;;108.87;;
2035;SDS011;23642;42.658;23.350;2024-03-23T18:33:05;116.27;;;109.00;;
2035;SDS011;23642;42.658;23.350;2024-03-23T18:36:07;114.23;;;106.97;;
2035;SDS011;23642;42.658;23.350;2024-03-23T18:38:55;113.80;;;107.10;;
2035;SDS011;23642;42.658;23.350;2024-03-23T18:41:29;113.40;;;106.60;;
2035;SDS011;23642;42.658;23.350;2024-03-23T18:44:11;112.60;;;105.60;;
2035;SDS011;23642;42.658;23.350;2024-03-23T18:46:40;112.00;;;105.50;;
2035;SDS011;23642;42.658;23.350;2024-03-23T18:49:11;112.50;;;105.70;;
2035;SDS011;23642;42.658;23.350;2024-03-23T18:51:49;112.20;;;105.70;;
2035;SDS011;23642;42.658;23.350;2024-03-23T18:54:24;109.70;;;103.07;;
2035;SDS011;23642;42.658;23.350;2024-03-23T18:59:48;116.23;;;108.27;;
2035;SDS011;23642;42.658;23.350;2024-03-23T19:02:24;117.53;;;110.13;;
2035;SDS011;23642;42.658;23.350;2024-03-23T19:05:25;119.37;;;111.60;;
2035;SDS011;23642;42.658;23.350;2024-03-23T19:08:30;116.87;;;109.17;;
2035;SDS011;23642;42.658;23.350;2024-03-23T19:11:18;118.73;;;111.20;;
2035;SDS011;23642;42.658;23.350;2024-03-23T19:14:27;118.40;;;110.90;;
2035;SDS011;23642;42.658;23.350;2024-03-23T19:17:07;115.17;;;108.00;;
2035;SDS011;23642;42.658;23.350;2024-03-23T19:19:54;116.27;;;108.40;;
2035;SDS011;23642;42.658;23.350;2024-03-23T19:22:57;115.97;;;108.40;;
2035;SDS011;23642;42.658;23.350;2024-03-23T19:25:50;116.80;;;109.60;;
2035;SDS011;23642;42.658;23.350;2024-03-23T19:28:37;113.43;;;105.83;;
2035;SDS011;23642;42.658;23.350;2024-03-23T19:31:43;112.30;;;105.27;;
2035;SDS011;23642;42.658;23.350;2024-03-23T19:34:12;115.73;;;108.53;;
2035;SDS011;23642;42.658;23.350;2024-03-23T19:37:00;115.87;;;108.77;;
2035;SDS011;23642;42.658;23.350;2024-03-23T19:39:39;113.97;;;107.07;;
2035;SDS011;23642;42.658;23.350;2024-03-23T19:42:21;114.53;;;107.33;;
2035;SDS011;23642;42.658;23.350;2024-03-23T19:45:10;115.47;;;107.87;;
2035;SDS011;23642;42.658;23.350;2024-03-23T19:47:56;113.83;;;106.57;;
2035;SDS011;23642;42.658;23.350;2024-03-23T19:50:38;114.53;;;107.83;;
2035;SDS011;23642;42.658;23.350;2024-03-23T19:53:44;114.67;;;107.57;;
2035;SDS011;23642;42.658;23.350;2024-03-23T19:56:25;113.27;;;106.40;;
2035;SDS011;23642;42.658;23.350;2024-03-23T19:58:54;113.67;;;106.77;;
2035;SDS011;23642;42.658;23.350;2024-03-23T20:01:36;114.67;;;107.57;;